sensor_id;sensor_type;location;lat;lon;timestamp;P1;durP1;ratioP1;P2;durP2;ratioP2
51475;SDS011;37554;50.362;7.568;2022-08-04T00:02:00;1.08;;;0.90;;
51475;SDS011;37554;50.362;7.568;2022-08-04T00:04:32;1.45;;;0.57;;
51475;SDS011;37554;50.362;7.568;2022-08-04T00:07:18;0.77;;;0.70;;
51475;SDS011;37554;50.362;7.568;2022-08-04T00:09:59;1.60;;;0.82;;
51475;SDS011;37554;50.362;7.568;2022-08-04T00:12:28;1.08;;;0.93;;
51475;SDS011;37554;50.362;7.568;2022-08-04T00:14:58;2.35;;;0.80;;
51475;SDS011;37554;50.362;7.568;2022-08-04T00:17:28;1.10;;;0.73;;
51475;SDS011;37554;50.362;7.568;2022-08-04T00:20:00;0.80;;;0.80;;
51475;SDS011;37554;50.362;7.568;2022-08-04T00:22:28;5.32;;;0.90;;
51475;SDS011;37554;50.362;7.568;2022-08-04T00:24:55;0.85;;;0.80;;
51475;SDS011;37554;50.362;7.568;2022-08-04T00:27:22;1.13;;;0.65;;
51475;SDS011;37554;50.362;7.568;2022-08-04T00:29:48;0.95;;;0.80;;
51475;SDS011;37554;50.362;7.568;2022-08-04T00:32:14;2.05;;;0.80;;
51475;SDS011;37554;50.362;7.568;2022-08-04T00:34:42;0.80;;;0.80;;
51475;SDS011;37554;50.362;7.568;2022-08-04T00:37:08;0.80;;;0.80;;
51475;SDS011;37554;50.362;7.568;2022-08-04T00:39:34;2.80;;;0.70;;
51475;SDS011;37554;50.362;7.568;2022-08-04T00:53:59;0.80;;;0.75;;
51475;SDS011;37554;50.362;7.568;2022-08-04T00:56:47;1.20;;;0.80;;
51475;SDS011;37554;50.362;7.568;2022-08-04T00:59:33;1.45;;;0.90;;
51475;SDS011;37554;50.362;7.568;2022-08-04T01:02:35;1.40;;;0.80;;
51475;SDS011;37554;50.362;7.568;2022-08-04T01:05:19;0.93;;;0.70;;
51475;SDS011;37554;50.362;7.568;2022-08-04T01:13:11;1.02;;;0.88;;
51475;SDS011;37554;50.362;7.568;2022-08-04T01:16:04;2.13;;;0.90;;
51475;SDS011;37554;50.362;7.568;2022-08-04T01:18:38;2.63;;;0.75;;
51475;SDS011;37554;50.362;7.568;2022-08-04T01:29:55;0.90;;;0.70;;
51475;SDS011;37554;50.362;7.568;2022-08-04T01:32:24;1.58;;;0.70;;
51475;SDS011;37554;50.362;7.568;2022-08-04T01:34:55;2.25;;;1.00;;
51475;SDS011;37554;50.362;7.568;2022-08-04T01:37:31;1.30;;;1.00;;
51475;SDS011;37554;50.362;7.568;2022-08-04T01:40:12;1.60;;;0.80;;
51475;SDS011;37554;50.362;7.568;2022-08-04T01:42:38;1.40;;;0.93;;
51475;SDS011;37554;50.362;7.568;2022-08-04T01:45:10;0.93;;;0.93;;
51475;SDS011;37554;50.362;7.568;2022-08-04T01:47:37;3.42;;;1.00;;
51475;SDS011;37554;50.362;7.568;2022-08-04T01:50:13;1.55;;;0.73;;
51475;SDS011;37554;50.362;7.568;2022-08-04T01:52:40;2.70;;;0.98;;
51475;SDS011;37554;50.362;7.568;2022-08-04T01:55:08;3.35;;;0.90;;
51475;SDS011;37554;50.362;7.568;2022-08-04T02:00:11;0.80;;;0.80;;
51475;SDS011;37554;50.362;7.568;2022-08-04T02:02:39;1.05;;;0.90;;
51475;SDS011;37554;50.362;7.568;2022-08-04T02:05:05;0.90;;;0.60;;
51475;SDS011;37554;50.362;7.568;2022-08-04T02:21:27;0.95;;;0.85;;
51475;SDS011;37554;50.362;7.568;2022-08-04T02:23:59;2.22;;;0.98;;
51475;SDS011;37554;50.362;7.568;2022-08-04T02:26:29;2.25;;;1.05;;
51475;SDS011;37554;50.362;7.568;2022-08-04T02:31:47;1.10;;;1.00;;
51475;SDS011;37554;50.362;7.568;2022-08-04T02:37:00;0.82;;;0.75;;
51475;SDS011;37554;50.362;7.568;2022-08-04T02:39:30;1.05;;;0.80;;
51475;SDS011;37554;50.362;7.568;2022-08-04T02:41:58;1.63;;;0.80;;
51475;SDS011;37554;50.362;7.568;2022-08-04T02:44:26;2.17;;;0.90;;
51475;SDS011;37554;50.362;7.568;2022-08-04T02:46:54;2.05;;;1.10;;
51475;SDS011;37554;50.362;7.568;2022-08-04T02:49:21;1.27;;;1.02;;
51475;SDS011;37554;50.362;7.568;2022-08-04T02:51:54;1.25;;;1.00;;
51475;SDS011;37554;50.362;7.568;2022-08-04T02:54:27;2.15;;;0.90;;
51475;SDS011;37554;50.362;7.568;2022-08-04T02:56:57;1.08;;;0.90;;
51475;SDS011;37554;50.362;7.568;2022-08-04T02:59:25;2.75;;;0.80;;
51475;SDS011;37554;50.362;7.568;2022-08-04T03:01:53;2.00;;;0.90;;
51475;SDS011;37554;50.362;7.568;2022-08-04T03:10:25;1.75;;;0.93;;
51475;SDS011;37554;50.362;7.568;2022-08-04T03:12:56;1.33;;;1.20;;
51475;SDS011;37554;50.362;7.568;2022-08-04T03:30:15;0.95;;;0.90;;
51475;SDS011;37554;50.362;7.568;2022-08-04T03:41:51;1.60;;;1.00;;
51475;SDS011;37554;50.362;7.568;2022-08-04T04:01:18;1.90;;;0.82;;
51475;SDS011;37554;50.362;7.568;2022-08-04T04:12:46;1.05;;;0.93;;
51475;SDS011;37554;50.362;7.568;2022-08-04T04:31:53;2.05;;;0.93;;
51475;SDS011;37554;50.362;7.568;2022-08-04T04:45:28;3.53;;;1.05;;
51475;SDS011;37554;50.362;7.568;2022-08-04T04:56:04;2.95;;;1.30;;
51475;SDS011;37554;50.362;7.568;2022-08-04T04:58:35;3.38;;;1.27;;
51475;SDS011;37554;50.362;7.568;2022-08-04T05:01:09;2.42;;;1.00;;
51475;SDS011;37554;50.362;7.568;2022-08-04T05:04:10;3.55;;;1.13;;
51475;SDS011;37554;50.362;7.568;2022-08-04T05:07:30;1.25;;;0.93;;
51475;SDS011;37554;50.362;7.568;2022-08-04T05:12:34;2.38;;;1.00;;
51475;SDS011;37554;50.362;7.568;2022-08-04T05:15:20;1.85;;;1.05;;
51475;SDS011;37554;50.362;7.568;2022-08-04T05:17:52;0.80;;;0.80;;
51475;SDS011;37554;50.362;7.568;2022-08-04T05:20:24;2.40;;;1.17;;
51475;SDS011;37554;50.362;7.568;2022-08-04T05:23:01;1.35;;;1.00;;
51475;SDS011;37554;50.362;7.568;2022-08-04T05:25:38;3.35;;;1.02;;
51475;SDS011;37554;50.362;7.568;2022-08-04T05:28:15;3.23;;;1.20;;
51475;SDS011;37554;50.362;7.568;2022-08-04T05:33:56;4.35;;;1.08;;
51475;SDS011;37554;50.362;7.568;2022-08-04T05:39:00;2.67;;;1.00;;
51475;SDS011;37554;50.362;7.568;2022-08-04T05:41:27;3.47;;;1.27;;
51475;SDS011;37554;50.362;7.568;2022-08-04T05:43:54;2.83;;;1.33;;
51475;SDS011;37554;50.362;7.568;2022-08-04T05:46:21;1.20;;;1.10;;
51475;SDS011;37554;50.362;7.568;2022-08-04T05:48:47;1.70;;;1.60;;
51475;SDS011;37554;50.362;7.568;2022-08-04T05:51:13;1.60;;;1.50;;
51475;SDS011;37554;50.362;7.568;2022-08-04T05:53:40;6.00;;;1.80;;
51475;SDS011;37554;50.362;7.568;2022-08-04T05:56:08;5.82;;;1.35;;
51475;SDS011;37554;50.362;7.568;2022-08-04T05:58:36;3.38;;;1.52;;
51475;SDS011;37554;50.362;7.568;2022-08-04T06:01:03;1.77;;;1.20;;
51475;SDS011;37554;50.362;7.568;2022-08-04T06:03:32;4.05;;;1.40;;
51475;SDS011;37554;50.362;7.568;2022-08-04T06:05:59;5.13;;;1.52;;
51475;SDS011;37554;50.362;7.568;2022-08-04T06:08:27;1.40;;;1.30;;
51475;SDS011;37554;50.362;7.568;2022-08-04T06:10:54;3.70;;;1.45;;
51475;SDS011;37554;50.362;7.568;2022-08-04T06:13:28;4.03;;;1.38;;
51475;SDS011;37554;50.362;7.568;2022-08-04T06:15:54;1.57;;;1.03;;
51475;SDS011;37554;50.362;7.568;2022-08-04T06:18:21;1.67;;;1.52;;
51475;SDS011;37554;50.362;7.568;2022-08-04T06:20:50;4.07;;;1.67;;
51475;SDS011;37554;50.362;7.568;2022-08-04T06:23:18;6.53;;;1.45;;
51475;SDS011;37554;50.362;7.568;2022-08-04T06:25:51;3.70;;;1.70;;
51475;SDS011;37554;50.362;7.568;2022-08-04T06:28:19;5.43;;;1.27;;
51475;SDS011;37554;50.362;7.568;2022-08-04T06:30:45;8.57;;;1.77;;
51475;SDS011;37554;50.362;7.568;2022-08-04T06:33:14;4.50;;;1.40;;
51475;SDS011;37554;50.362;7.568;2022-08-04T06:35:50;1.98;;;1.40;;
51475;SDS011;37554;50.362;7.568;2022-08-04T06:38:20;10.05;;;1.50;;
51475;SDS011;37554;50.362;7.568;2022-08-04T06:40:51;2.30;;;1.48;;
51475;SDS011;37554;50.362;7.568;2022-08-04T06:43:18;8.88;;;1.80;;
51475;SDS011;37554;50.362;7.568;2022-08-04T06:45:46;4.45;;;1.73;;
51475;SDS011;37554;50.362;7.568;2022-08-04T06:48:13;3.05;;;1.45;;
51475;SDS011;37554;50.362;7.568;2022-08-04T06:50:42;5.15;;;1.70;;
51475;SDS011;37554;50.362;7.568;2022-08-04T06:53:12;2.60;;;1.42;;
51475;SDS011;37554;50.362;7.568;2022-08-04T06:55:38;1.65;;;1.42;;
51475;SDS011;37554;50.362;7.568;2022-08-04T06:58:05;5.43;;;1.55;;
51475;SDS011;37554;50.362;7.568;2022-08-04T07:00:33;5.20;;;1.50;;
51475;SDS011;37554;50.362;7.568;2022-08-04T07:02:59;5.55;;;1.60;;
51475;SDS011;37554;50.362;7.568;2022-08-04T07:05:26;5.03;;;1.42;;
51475;SDS011;37554;50.362;7.568;2022-08-04T07:07:53;1.65;;;1.45;;
51475;SDS011;37554;50.362;7.568;2022-08-04T07:10:19;2.83;;;1.50;;
51475;SDS011;37554;50.362;7.568;2022-08-04T07:12:46;3.58;;;1.70;;
51475;SDS011;37554;50.362;7.568;2022-08-04T07:15:13;3.70;;;1.30;;
51475;SDS011;37554;50.362;7.568;2022-08-04T07:17:42;3.67;;;1.40;;
51475;SDS011;37554;50.362;7.568;2022-08-04T07:20:10;5.43;;;1.38;;
51475;SDS011;37554;50.362;7.568;2022-08-04T07:22:36;7.32;;;1.50;;
51475;SDS011;37554;50.362;7.568;2022-08-04T07:25:07;3.47;;;1.58;;
51475;SDS011;37554;50.362;7.568;2022-08-04T07:27:33;3.30;;;1.25;;
51475;SDS011;37554;50.362;7.568;2022-08-04T07:29:59;1.98;;;1.40;;
51475;SDS011;37554;50.362;7.568;2022-08-04T07:32:25;5.85;;;1.40;;
51475;SDS011;37554;50.362;7.568;2022-08-04T07:34:52;3.28;;;1.50;;
51475;SDS011;37554;50.362;7.568;2022-08-04T07:37:18;6.88;;;1.63;;
51475;SDS011;37554;50.362;7.568;2022-08-04T07:39:44;6.93;;;1.98;;
51475;SDS011;37554;50.362;7.568;2022-08-04T07:42:10;9.88;;;1.60;;
51475;SDS011;37554;50.362;7.568;2022-08-04T07:44:37;2.88;;;1.58;;
51475;SDS011;37554;50.362;7.568;2022-08-04T07:47:05;4.40;;;1.50;;
51475;SDS011;37554;50.362;7.568;2022-08-04T07:49:32;5.50;;;1.75;;
51475;SDS011;37554;50.362;7.568;2022-08-04T07:51:59;7.00;;;1.83;;
51475;SDS011;37554;50.362;7.568;2022-08-04T07:54:25;5.53;;;1.50;;
51475;SDS011;37554;50.362;7.568;2022-08-04T07:56:51;6.47;;;1.83;;
51475;SDS011;37554;50.362;7.568;2022-08-04T07:59:17;5.95;;;1.52;;
51475;SDS011;37554;50.362;7.568;2022-08-04T08:01:44;4.93;;;1.80;;
51475;SDS011;37554;50.362;7.568;2022-08-04T08:04:11;3.22;;;1.60;;
51475;SDS011;37554;50.362;7.568;2022-08-04T08:06:38;4.70;;;1.52;;
51475;SDS011;37554;50.362;7.568;2022-08-04T08:11:33;4.53;;;1.52;;
51475;SDS011;37554;50.362;7.568;2022-08-04T08:14:00;3.90;;;1.48;;
51475;SDS011;37554;50.362;7.568;2022-08-04T08:16:26;5.95;;;1.70;;
51475;SDS011;37554;50.362;7.568;2022-08-04T08:18:52;3.28;;;1.50;;
51475;SDS011;37554;50.362;7.568;2022-08-04T08:21:19;2.30;;;1.30;;
51475;SDS011;37554;50.362;7.568;2022-08-04T08:23:46;3.47;;;1.58;;
51475;SDS011;37554;50.362;7.568;2022-08-04T08:26:13;4.80;;;1.40;;
51475;SDS011;37554;50.362;7.568;2022-08-04T08:28:39;3.30;;;1.70;;
51475;SDS011;37554;50.362;7.568;2022-08-04T08:31:05;6.95;;;1.60;;
51475;SDS011;37554;50.362;7.568;2022-08-04T08:33:30;3.05;;;1.60;;
51475;SDS011;37554;50.362;7.568;2022-08-04T08:41:49;4.07;;;1.38;;
51475;SDS011;37554;50.362;7.568;2022-08-04T08:47:30;5.32;;;1.73;;
51475;SDS011;37554;50.362;7.568;2022-08-04T09:09:52;7.90;;;2.13;;
51475;SDS011;37554;50.362;7.568;2022-08-04T09:12:27;5.53;;;1.60;;
51475;SDS011;37554;50.362;7.568;2022-08-04T09:15:04;7.63;;;1.70;;
51475;SDS011;37554;50.362;7.568;2022-08-04T09:17:49;7.40;;;1.65;;
51475;SDS011;37554;50.362;7.568;2022-08-04T09:20:21;7.82;;;1.83;;
51475;SDS011;37554;50.362;7.568;2022-08-04T09:25:56;5.35;;;1.75;;
51475;SDS011;37554;50.362;7.568;2022-08-04T09:34:38;3.60;;;1.80;;
51475;SDS011;37554;50.362;7.568;2022-08-04T09:40:06;5.75;;;1.52;;
51475;SDS011;37554;50.362;7.568;2022-08-04T09:42:45;5.53;;;1.90;;
51475;SDS011;37554;50.362;7.568;2022-08-04T09:45:32;4.88;;;1.25;;
51475;SDS011;37554;50.362;7.568;2022-08-04T09:48:12;6.18;;;1.80;;
51475;SDS011;37554;50.362;7.568;2022-08-04T09:50:43;8.07;;;1.92;;
51475;SDS011;37554;50.362;7.568;2022-08-04T09:59:19;6.40;;;1.40;;
51475;SDS011;37554;50.362;7.568;2022-08-04T10:01:52;3.58;;;1.65;;
51475;SDS011;37554;50.362;7.568;2022-08-04T10:04:21;4.90;;;1.63;;
51475;SDS011;37554;50.362;7.568;2022-08-04T10:23:11;2.63;;;1.13;;
51475;SDS011;37554;50.362;7.568;2022-08-04T10:28:14;4.30;;;1.50;;
51475;SDS011;37554;50.362;7.568;2022-08-04T10:30:46;1.40;;;1.27;;
51475;SDS011;37554;50.362;7.568;2022-08-04T10:36:22;1.42;;;1.08;;
51475;SDS011;37554;50.362;7.568;2022-08-04T10:41:51;1.45;;;0.90;;
51475;SDS011;37554;50.362;7.568;2022-08-04T10:47:21;4.25;;;1.00;;
51475;SDS011;37554;50.362;7.568;2022-08-04T10:49:55;3.45;;;0.93;;
51475;SDS011;37554;50.362;7.568;2022-08-04T10:52:45;1.58;;;0.93;;
51475;SDS011;37554;50.362;7.568;2022-08-04T10:55:20;4.43;;;1.27;;
51475;SDS011;37554;50.362;7.568;2022-08-04T10:57:55;4.00;;;1.20;;
51475;SDS011;37554;50.362;7.568;2022-08-04T11:00:26;3.60;;;1.00;;
51475;SDS011;37554;50.362;7.568;2022-08-04T11:05:47;3.22;;;0.80;;
51475;SDS011;37554;50.362;7.568;2022-08-04T11:08:32;4.43;;;0.75;;
51475;SDS011;37554;50.362;7.568;2022-08-04T11:13:58;1.05;;;0.63;;
51475;SDS011;37554;50.362;7.568;2022-08-04T11:16:35;1.35;;;0.60;;
51475;SDS011;37554;50.362;7.568;2022-08-04T11:22:05;1.30;;;0.60;;
51475;SDS011;37554;50.362;7.568;2022-08-04T11:24:44;1.15;;;0.50;;
51475;SDS011;37554;50.362;7.568;2022-08-04T11:27:29;0.73;;;0.63;;
51475;SDS011;37554;50.362;7.568;2022-08-04T11:30:21;3.67;;;0.50;;
51475;SDS011;37554;50.362;7.568;2022-08-04T11:35:26;3.22;;;0.47;;
51475;SDS011;37554;50.362;7.568;2022-08-04T11:38:03;2.90;;;0.50;;
51475;SDS011;37554;50.362;7.568;2022-08-04T11:40:53;1.10;;;0.50;;
51475;SDS011;37554;50.362;7.568;2022-08-04T11:43:25;3.50;;;0.63;;
51475;SDS011;37554;50.362;7.568;2022-08-04T11:46:12;2.65;;;0.55;;
51475;SDS011;37554;50.362;7.568;2022-08-04T11:48:46;1.73;;;0.50;;
51475;SDS011;37554;50.362;7.568;2022-08-04T11:51:16;3.63;;;0.60;;
51475;SDS011;37554;50.362;7.568;2022-08-04T11:53:42;2.80;;;0.55;;
51475;SDS011;37554;50.362;7.568;2022-08-04T11:56:10;3.72;;;0.70;;
51475;SDS011;37554;50.362;7.568;2022-08-04T11:58:39;0.80;;;0.43;;
51475;SDS011;37554;50.362;7.568;2022-08-04T12:01:19;1.60;;;0.60;;
51475;SDS011;37554;50.362;7.568;2022-08-04T12:06:54;0.95;;;0.50;;
51475;SDS011;37554;50.362;7.568;2022-08-04T12:09:45;2.95;;;0.50;;
51475;SDS011;37554;50.362;7.568;2022-08-04T12:15:22;1.92;;;0.40;;
51475;SDS011;37554;50.362;7.568;2022-08-04T12:18:06;5.93;;;0.60;;
51475;SDS011;37554;50.362;7.568;2022-08-04T12:20:44;1.33;;;0.43;;
51475;SDS011;37554;50.362;7.568;2022-08-04T12:23:23;1.20;;;0.50;;
51475;SDS011;37554;50.362;7.568;2022-08-04T12:25:55;0.30;;;0.30;;
51475;SDS011;37554;50.362;7.568;2022-08-04T12:28:44;0.75;;;0.55;;
51475;SDS011;37554;50.362;7.568;2022-08-04T12:34:04;1.65;;;0.40;;
51475;SDS011;37554;50.362;7.568;2022-08-04T12:36:42;1.20;;;0.40;;
51475;SDS011;37554;50.362;7.568;2022-08-04T12:39:18;3.92;;;0.50;;
51475;SDS011;37554;50.362;7.568;2022-08-04T12:41:54;1.73;;;0.40;;
51475;SDS011;37554;50.362;7.568;2022-08-04T12:44:22;4.32;;;0.50;;
51475;SDS011;37554;50.362;7.568;2022-08-04T12:46:55;2.58;;;0.50;;
51475;SDS011;37554;50.362;7.568;2022-08-04T12:49:22;2.83;;;0.40;;
51475;SDS011;37554;50.362;7.568;2022-08-04T12:51:49;2.88;;;0.65;;
51475;SDS011;37554;50.362;7.568;2022-08-04T12:54:20;3.78;;;0.93;;
51475;SDS011;37554;50.362;7.568;2022-08-04T12:56:49;3.25;;;0.50;;
51475;SDS011;37554;50.362;7.568;2022-08-04T12:59:16;2.50;;;0.40;;
51475;SDS011;37554;50.362;7.568;2022-08-04T13:01:48;2.70;;;0.55;;
51475;SDS011;37554;50.362;7.568;2022-08-04T13:04:16;3.70;;;0.50;;
51475;SDS011;37554;50.362;7.568;2022-08-04T13:06:44;0.77;;;0.50;;
51475;SDS011;37554;50.362;7.568;2022-08-04T13:09:30;0.88;;;0.43;;
51475;SDS011;37554;50.362;7.568;2022-08-04T13:12:00;2.65;;;0.57;;
51475;SDS011;37554;50.362;7.568;2022-08-04T13:14:32;3.50;;;0.60;;
51475;SDS011;37554;50.362;7.568;2022-08-04T13:17:01;0.70;;;0.43;;
51475;SDS011;37554;50.362;7.568;2022-08-04T13:19:28;2.88;;;0.50;;
51475;SDS011;37554;50.362;7.568;2022-08-04T13:21:55;1.45;;;0.70;;
51475;SDS011;37554;50.362;7.568;2022-08-04T13:24:21;3.08;;;0.70;;
51475;SDS011;37554;50.362;7.568;2022-08-04T13:26:49;3.03;;;0.60;;
51475;SDS011;37554;50.362;7.568;2022-08-04T13:29:33;1.13;;;0.50;;
51475;SDS011;37554;50.362;7.568;2022-08-04T13:32:07;0.98;;;0.55;;
51475;SDS011;37554;50.362;7.568;2022-08-04T13:34:34;2.10;;;0.50;;
51475;SDS011;37554;50.362;7.568;2022-08-04T13:37:04;3.75;;;0.50;;
51475;SDS011;37554;50.362;7.568;2022-08-04T13:39:31;1.85;;;0.43;;
51475;SDS011;37554;50.362;7.568;2022-08-04T13:41:59;3.28;;;0.60;;
51475;SDS011;37554;50.362;7.568;2022-08-04T13:44:31;1.63;;;0.50;;
51475;SDS011;37554;50.362;7.568;2022-08-04T13:47:05;3.65;;;0.63;;
51475;SDS011;37554;50.362;7.568;2022-08-04T13:49:34;4.38;;;1.00;;
51475;SDS011;37554;50.362;7.568;2022-08-04T13:52:01;0.68;;;0.43;;
51475;SDS011;37554;50.362;7.568;2022-08-04T13:54:39;3.00;;;0.70;;
51475;SDS011;37554;50.362;7.568;2022-08-04T13:57:09;2.25;;;0.80;;
51475;SDS011;37554;50.362;7.568;2022-08-04T13:59:40;2.47;;;0.70;;
51475;SDS011;37554;50.362;7.568;2022-08-04T14:02:16;9.30;;;1.05;;
51475;SDS011;37554;50.362;7.568;2022-08-04T14:05:36;4.70;;;0.60;;
51475;SDS011;37554;50.362;7.568;2022-08-04T14:08:06;3.75;;;0.80;;
51475;SDS011;37554;50.362;7.568;2022-08-04T14:10:36;3.33;;;0.43;;
51475;SDS011;37554;50.362;7.568;2022-08-04T14:13:04;3.83;;;0.60;;
51475;SDS011;37554;50.362;7.568;2022-08-04T14:15:31;1.75;;;0.60;;
51475;SDS011;37554;50.362;7.568;2022-08-04T14:18:15;2.72;;;0.70;;
51475;SDS011;37554;50.362;7.568;2022-08-04T14:23:47;4.90;;;1.00;;
51475;SDS011;37554;50.362;7.568;2022-08-04T14:29:07;1.77;;;0.50;;
51475;SDS011;37554;50.362;7.568;2022-08-04T14:31:34;2.65;;;0.52;;
51475;SDS011;37554;50.362;7.568;2022-08-04T14:34:00;4.53;;;0.80;;
51475;SDS011;37554;50.362;7.568;2022-08-04T14:36:26;4.68;;;0.80;;
51475;SDS011;37554;50.362;7.568;2022-08-04T14:38:55;4.57;;;0.90;;
51475;SDS011;37554;50.362;7.568;2022-08-04T14:41:26;3.10;;;0.93;;
51475;SDS011;37554;50.362;7.568;2022-08-04T14:43:54;5.28;;;0.70;;
51475;SDS011;37554;50.362;7.568;2022-08-04T14:46:22;8.63;;;1.00;;
51475;SDS011;37554;50.362;7.568;2022-08-04T14:51:25;8.32;;;0.90;;
51475;SDS011;37554;50.362;7.568;2022-08-04T14:53:51;3.72;;;0.90;;
51475;SDS011;37554;50.362;7.568;2022-08-04T14:56:18;3.35;;;1.10;;
51475;SDS011;37554;50.362;7.568;2022-08-04T14:58:44;4.18;;;0.90;;
51475;SDS011;37554;50.362;7.568;2022-08-04T15:01:22;2.90;;;0.70;;
51475;SDS011;37554;50.362;7.568;2022-08-04T15:03:47;4.43;;;1.02;;
51475;SDS011;37554;50.362;7.568;2022-08-04T15:06:13;6.80;;;1.33;;
51475;SDS011;37554;50.362;7.568;2022-08-04T15:08:39;3.42;;;1.10;;
51475;SDS011;37554;50.362;7.568;2022-08-04T15:11:04;9.13;;;1.30;;
51475;SDS011;37554;50.362;7.568;2022-08-04T15:13:30;8.55;;;1.27;;
51475;SDS011;37554;50.362;7.568;2022-08-04T15:15:56;6.03;;;1.13;;
51475;SDS011;37554;50.362;7.568;2022-08-04T15:18:22;9.27;;;1.33;;
51475;SDS011;37554;50.362;7.568;2022-08-04T15:20:49;12.07;;;1.60;;
51475;SDS011;37554;50.362;7.568;2022-08-04T15:23:16;8.15;;;1.20;;
51475;SDS011;37554;50.362;7.568;2022-08-04T15:25:46;8.82;;;1.42;;
51475;SDS011;37554;50.362;7.568;2022-08-04T15:28:17;3.90;;;1.15;;
51475;SDS011;37554;50.362;7.568;2022-08-04T15:30:47;8.73;;;1.20;;
51475;SDS011;37554;50.362;7.568;2022-08-04T15:33:14;6.22;;;1.27;;
51475;SDS011;37554;50.362;7.568;2022-08-04T15:35:47;11.50;;;1.33;;
51475;SDS011;37554;50.362;7.568;2022-08-04T15:38:26;8.20;;;1.15;;
51475;SDS011;37554;50.362;7.568;2022-08-04T15:41:03;7.85;;;1.50;;
51475;SDS011;37554;50.362;7.568;2022-08-04T15:46:18;6.90;;;1.38;;
51475;SDS011;37554;50.362;7.568;2022-08-04T15:49:19;8.45;;;1.40;;
51475;SDS011;37554;50.362;7.568;2022-08-04T15:52:04;11.05;;;1.42;;
51475;SDS011;37554;50.362;7.568;2022-08-04T15:54:31;6.88;;;1.13;;
51475;SDS011;37554;50.362;7.568;2022-08-04T15:56:59;6.50;;;1.17;;
51475;SDS011;37554;50.362;7.568;2022-08-04T16:02:27;8.23;;;1.45;;
51475;SDS011;37554;50.362;7.568;2022-08-04T16:07:56;8.63;;;1.20;;
51475;SDS011;37554;50.362;7.568;2022-08-04T16:12:56;9.05;;;1.42;;
51475;SDS011;37554;50.362;7.568;2022-08-04T16:15:38;9.95;;;1.10;;
51475;SDS011;37554;50.362;7.568;2022-08-04T16:18:11;11.15;;;1.27;;
51475;SDS011;37554;50.362;7.568;2022-08-04T16:20:44;8.57;;;1.17;;
51475;SDS011;37554;50.362;7.568;2022-08-04T16:25:45;6.18;;;1.13;;
51475;SDS011;37554;50.362;7.568;2022-08-04T16:28:49;7.10;;;1.10;;
51475;SDS011;37554;50.362;7.568;2022-08-04T16:31:09;6.55;;;1.40;;
51475;SDS011;37554;50.362;7.568;2022-08-04T16:33:36;4.30;;;1.25;;
51475;SDS011;37554;50.362;7.568;2022-08-04T16:36:04;7.75;;;1.20;;
51475;SDS011;37554;50.362;7.568;2022-08-04T16:38:32;5.72;;;1.13;;
51475;SDS011;37554;50.362;7.568;2022-08-04T16:41:37;5.90;;;1.40;;
51475;SDS011;37554;50.362;7.568;2022-08-04T16:46:58;6.32;;;1.15;;
51475;SDS011;37554;50.362;7.568;2022-08-04T16:49:25;4.60;;;1.35;;
51475;SDS011;37554;50.362;7.568;2022-08-04T16:52:01;5.85;;;1.30;;
51475;SDS011;37554;50.362;7.568;2022-08-04T16:54:31;10.40;;;1.63;;
51475;SDS011;37554;50.362;7.568;2022-08-04T16:56:59;7.90;;;1.75;;
51475;SDS011;37554;50.362;7.568;2022-08-04T16:59:25;5.53;;;1.55;;
51475;SDS011;37554;50.362;7.568;2022-08-04T17:01:52;4.97;;;1.13;;
51475;SDS011;37554;50.362;7.568;2022-08-04T17:04:32;5.32;;;1.20;;
51475;SDS011;37554;50.362;7.568;2022-08-04T17:06:59;8.88;;;1.65;;
51475;SDS011;37554;50.362;7.568;2022-08-04T17:09:26;5.57;;;1.40;;
51475;SDS011;37554;50.362;7.568;2022-08-04T17:11:52;7.63;;;1.42;;
51475;SDS011;37554;50.362;7.568;2022-08-04T17:14:27;6.78;;;1.35;;
51475;SDS011;37554;50.362;7.568;2022-08-04T17:16:56;5.78;;;1.08;;
51475;SDS011;37554;50.362;7.568;2022-08-04T17:19:24;8.90;;;1.30;;
51475;SDS011;37554;50.362;7.568;2022-08-04T17:21:50;9.82;;;1.38;;
51475;SDS011;37554;50.362;7.568;2022-08-04T17:24:16;12.65;;;1.60;;
51475;SDS011;37554;50.362;7.568;2022-08-04T17:26:43;10.77;;;1.90;;
51475;SDS011;37554;50.362;7.568;2022-08-04T17:29:11;9.48;;;2.30;;
51475;SDS011;37554;50.362;7.568;2022-08-04T17:31:37;10.85;;;1.73;;
51475;SDS011;37554;50.362;7.568;2022-08-04T17:34:15;12.80;;;1.80;;
51475;SDS011;37554;50.362;7.568;2022-08-04T17:36:45;18.20;;;1.90;;
51475;SDS011;37554;50.362;7.568;2022-08-04T17:39:14;13.13;;;1.60;;
51475;SDS011;37554;50.362;7.568;2022-08-04T17:41:44;9.02;;;1.70;;
51475;SDS011;37554;50.362;7.568;2022-08-04T17:44:11;7.65;;;1.60;;
51475;SDS011;37554;50.362;7.568;2022-08-04T17:46:43;8.32;;;1.83;;
51475;SDS011;37554;50.362;7.568;2022-08-04T17:54:31;9.35;;;2.03;;
51475;SDS011;37554;50.362;7.568;2022-08-04T17:57:11;5.78;;;1.70;;
51475;SDS011;37554;50.362;7.568;2022-08-04T18:02:05;8.23;;;1.75;;
51475;SDS011;37554;50.362;7.568;2022-08-04T18:04:35;12.60;;;1.58;;
51475;SDS011;37554;50.362;7.568;2022-08-04T18:07:21;14.40;;;1.90;;
51475;SDS011;37554;50.362;7.568;2022-08-04T18:09:51;8.82;;;1.63;;
51475;SDS011;37554;50.362;7.568;2022-08-04T18:14:55;6.10;;;1.42;;
51475;SDS011;37554;50.362;7.568;2022-08-04T18:19:57;4.50;;;1.50;;
51475;SDS011;37554;50.362;7.568;2022-08-04T18:22:23;5.25;;;1.35;;
51475;SDS011;37554;50.362;7.568;2022-08-04T18:24:49;5.90;;;1.40;;
51475;SDS011;37554;50.362;7.568;2022-08-04T18:27:16;4.72;;;1.50;;
51475;SDS011;37554;50.362;7.568;2022-08-04T18:29:46;6.25;;;1.58;;
51475;SDS011;37554;50.362;7.568;2022-08-04T18:32:12;8.23;;;1.60;;
51475;SDS011;37554;50.362;7.568;2022-08-04T18:34:38;3.17;;;1.50;;
51475;SDS011;37554;50.362;7.568;2022-08-04T18:37:04;5.13;;;1.52;;
51475;SDS011;37554;50.362;7.568;2022-08-04T18:39:29;4.25;;;1.40;;
51475;SDS011;37554;50.362;7.568;2022-08-04T18:41:55;2.70;;;1.17;;
51475;SDS011;37554;50.362;7.568;2022-08-04T18:44:21;7.57;;;1.67;;
51475;SDS011;37554;50.362;7.568;2022-08-04T18:46:48;6.97;;;1.52;;
51475;SDS011;37554;50.362;7.568;2022-08-04T18:49:13;4.75;;;1.38;;
51475;SDS011;37554;50.362;7.568;2022-08-04T18:51:39;5.22;;;1.63;;
51475;SDS011;37554;50.362;7.568;2022-08-04T18:54:05;8.07;;;1.20;;
51475;SDS011;37554;50.362;7.568;2022-08-04T18:56:31;3.80;;;1.20;;
51475;SDS011;37554;50.362;7.568;2022-08-04T18:59:01;4.32;;;1.05;;
51475;SDS011;37554;50.362;7.568;2022-08-04T19:01:28;8.70;;;1.30;;
51475;SDS011;37554;50.362;7.568;2022-08-04T19:03:54;6.72;;;1.50;;
51475;SDS011;37554;50.362;7.568;2022-08-04T19:06:20;7.15;;;1.30;;
51475;SDS011;37554;50.362;7.568;2022-08-04T19:08:46;6.20;;;1.23;;
51475;SDS011;37554;50.362;7.568;2022-08-04T19:11:12;9.60;;;2.00;;
51475;SDS011;37554;50.362;7.568;2022-08-04T19:13:38;4.20;;;1.50;;
51475;SDS011;37554;50.362;7.568;2022-08-04T19:16:04;2.83;;;1.40;;
51475;SDS011;37554;50.362;7.568;2022-08-04T19:18:29;4.05;;;1.45;;
51475;SDS011;37554;50.362;7.568;2022-08-04T19:20:56;8.95;;;1.63;;
51475;SDS011;37554;50.362;7.568;2022-08-04T19:23:22;7.63;;;1.63;;
51475;SDS011;37554;50.362;7.568;2022-08-04T19:25:49;8.93;;;1.40;;
51475;SDS011;37554;50.362;7.568;2022-08-04T19:28:15;9.30;;;1.55;;
51475;SDS011;37554;50.362;7.568;2022-08-04T19:30:41;4.85;;;1.48;;
51475;SDS011;37554;50.362;7.568;2022-08-04T19:33:08;1.92;;;1.40;;
51475;SDS011;37554;50.362;7.568;2022-08-04T19:35:34;5.13;;;1.52;;
51475;SDS011;37554;50.362;7.568;2022-08-04T19:38:01;6.63;;;1.50;;
51475;SDS011;37554;50.362;7.568;2022-08-04T19:40:27;3.25;;;1.52;;
51475;SDS011;37554;50.362;7.568;2022-08-04T19:42:53;3.00;;;1.50;;
51475;SDS011;37554;50.362;7.568;2022-08-04T19:45:18;5.50;;;1.52;;
51475;SDS011;37554;50.362;7.568;2022-08-04T19:47:44;5.53;;;1.40;;
51475;SDS011;37554;50.362;7.568;2022-08-04T19:50:10;4.30;;;1.52;;
51475;SDS011;37554;50.362;7.568;2022-08-04T19:52:36;4.80;;;1.40;;
51475;SDS011;37554;50.362;7.568;2022-08-04T19:55:02;3.67;;;1.23;;